Oakhill, Alabama
Current Conditions -  °F | °C
As of 10:56 AM on Friday 24 Oct 2014 (Local Time) from KPRN Reporting Station
Clear Clear  
Wind Chill: 70°   Ceiling: Unl
Heat Index: 70°   Visibility: 10mi
Dew Point: 45°   Wind: 5mph
Humidity: 41%   Direction: 350°N
Pressure: 30.08"   Gusts: NA
Location:  31.9217°N, 87.0814°W
Report Text: KPRN 241556Z AUTO 35004KT 10SM CLR 21/07 A3008 RMK AO2 SLP182 T02110072
Loading
Personal Weather Stations






























Interactive Weather Map New forecast layout! Learn more

10-Day Weather Forecast

Advertisements
Track Severe Weather on mobile